createdAt,value
2023-02-06T00:01:52.039Z,102445.94
2023-02-06T00:04:20.702Z,102453.78
2023-02-06T00:06:50.357Z,102459.09
2023-02-06T00:09:18.813Z,102460.84
2023-02-06T00:11:49.864Z,102452.22
2023-02-06T00:14:18.308Z,102452.16
2023-02-06T00:16:46.767Z,102445.16
2023-02-06T00:19:15.238Z,102445.84
2023-02-06T00:21:43.932Z,102441.41
2023-02-06T00:24:14.539Z,102433.63
2023-02-06T00:26:43.011Z,102432.13
2023-02-06T00:29:11.442Z,102437.31
2023-02-06T00:31:40.164Z,102439.25
2023-02-06T00:34:08.703Z,102450.81
2023-02-06T00:36:37.157Z,102445.72
2023-02-06T00:39:05.589Z,102435.34
2023-02-06T00:41:36.156Z,102425.78
2023-02-06T00:44:04.586Z,102427.34
2023-02-06T00:46:33.428Z,102432.31
2023-02-06T00:49:01.962Z,102439.19
2023-02-06T00:51:30.593Z,102452.22
2023-02-06T00:54:01.407Z,102452.16
2023-02-06T00:56:29.848Z,102452.09
2023-02-06T00:58:58.305Z,102459.13
2023-02-06T01:01:26.957Z,102465.94
2023-02-06T01:03:55.482Z,102472.75
2023-02-06T01:06:24.118Z,102479.69
2023-02-06T01:08:52.594Z,102481.44
2023-02-06T01:11:24.288Z,102483.06
2023-02-06T01:13:53.049Z,102493.50
2023-02-06T01:16:25.403Z,102474.19
2023-02-06T01:18:53.878Z,102462.84
2023-02-06T01:21:25.747Z,102475.78
2023-02-06T01:23:55.440Z,102474.03
2023-02-06T01:26:27.655Z,102474.19
2023-02-06T01:28:56.585Z,102467.44
2023-02-06T01:35:26.919Z,102463.78
2023-02-06T01:37:55.565Z,102459.50
2023-02-06T01:40:23.918Z,102457.75
2023-02-06T01:42:52.577Z,102461.28
2023-02-06T01:45:26.978Z,102462.22
2023-02-06T01:48:07.391Z,102451.00
2023-02-06T01:50:38.386Z,102453.78
2023-02-06T01:53:07.875Z,102449.47
2023-02-06T01:55:38.807Z,102445.88
2023-02-06T01:58:09.211Z,102445.88
2023-02-06T02:00:38.055Z,102438.94
2023-02-06T02:03:07.493Z,102436.38
2023-02-06T02:05:36.623Z,102421.81
2023-02-06T02:08:17.470Z,102422.22
2023-02-06T02:10:46.257Z,102432.09
2023-02-06T02:13:14.941Z,102430.44
2023-02-06T02:15:50.569Z,102434.06
2023-02-06T02:18:31.672Z,102428.94
2023-02-06T02:21:51.644Z,102426.44
2023-02-06T02:24:39.119Z,102424.59
2023-02-06T02:27:28.551Z,102420.78
2023-02-06T02:30:03.278Z,102417.06
2023-02-06T02:33:27.537Z,102410.69
2023-02-06T02:36:31.035Z,102420.97
2023-02-06T02:40:01.619Z,102413.91
2023-02-06T02:42:44.846Z,102407.91
2023-02-06T02:45:27.011Z,102394.19
2023-02-06T02:48:22.430Z,102395.94
2023-02-06T02:50:51.854Z,102393.47
2023-02-06T02:53:20.577Z,102390.03
2023-02-06T02:55:49.230Z,102391.75
2023-02-06T02:58:23.776Z,102389.19
2023-02-06T03:01:00.348Z,102390.03
2023-02-06T03:03:31.476Z,102369.94
2023-02-06T03:06:49.892Z,102387.56
2023-02-06T03:10:00.065Z,102385.91
2023-02-06T03:12:41.436Z,102389.34
2023-02-06T03:15:43.144Z,102400.66
2023-02-06T03:18:21.323Z,102390.97
2023-02-06T03:20:50.125Z,102384.84
2023-02-06T03:23:28.922Z,102380.41
2023-02-06T03:26:02.656Z,102375.88
2023-02-06T03:28:39.028Z,102385.44
2023-02-06T03:31:15.907Z,102384.56
2023-02-06T03:34:00.996Z,102374.91
2023-02-06T03:36:29.942Z,102375.75
2023-02-06T03:38:58.353Z,102373.16
2023-02-06T03:41:33.741Z,102375.66
2023-02-06T03:44:04.920Z,102379.00
2023-02-06T03:46:35.262Z,102378.06
2023-02-06T03:49:08.679Z,102384.78
2023-02-06T03:52:01.565Z,102381.09
2023-02-06T03:54:31.552Z,102372.88
2023-02-06T03:57:04.615Z,102400.53
2023-02-06T03:59:33.317Z,102399.44
2023-02-06T04:02:04.354Z,102402.75
2023-02-06T04:04:38.248Z,102397.34
2023-02-06T04:07:19.113Z,102399.91
2023-02-06T04:09:47.818Z,102397.25
2023-02-06T04:12:16.677Z,102384.72
2023-02-06T04:14:45.918Z,102385.38
2023-02-06T04:17:23.767Z,102382.38
2023-02-06T04:20:00.237Z,102387.41
2023-02-06T04:22:29.053Z,102382.94
2023-02-06T04:24:57.665Z,102374.97
2023-02-06T04:27:26.911Z,102363.34
2023-02-06T04:29:55.508Z,102368.53
2023-02-06T04:32:24.232Z,102358.72
2023-02-06T04:34:52.823Z,102371.84
2023-02-06T04:37:21.367Z,102386.03
2023-02-06T04:39:50.141Z,102390.59
2023-02-06T04:42:18.759Z,102391.47
2023-02-06T04:44:47.399Z,102398.47
2023-02-06T04:47:16.065Z,102392.25
2023-02-06T04:49:44.626Z,102391.34
2023-02-06T04:52:13.322Z,102388.41
2023-02-06T04:54:41.888Z,102389.06
2023-02-06T04:57:10.543Z,102386.34
2023-02-06T04:59:39.224Z,102388.72
2023-02-06T05:02:07.828Z,102375.59
2023-02-06T05:04:36.475Z,102376.38
2023-02-06T05:07:05.603Z,102354.44
2023-02-06T05:09:34.439Z,102352.56
2023-02-06T05:12:03.045Z,102357.69
2023-02-06T05:14:31.848Z,102349.94
2023-02-06T05:17:00.564Z,102353.31
2023-02-06T05:19:29.377Z,102361.22
2023-02-06T05:21:57.970Z,102362.09
2023-02-06T05:24:26.573Z,102356.81
2023-02-06T05:26:57.944Z,102349.81
2023-02-06T05:29:27.574Z,102352.34
2023-02-06T05:31:56.212Z,102361.06
2023-02-06T05:34:24.875Z,102351.47
2023-02-06T05:36:53.609Z,102355.69
2023-02-06T05:39:22.380Z,102356.38
2023-02-06T05:41:51.127Z,102344.88
2023-02-06T05:44:20.110Z,102360.44
2023-02-06T05:46:49.455Z,102356.91
2023-02-06T05:49:17.928Z,102362.09
2023-02-06T05:51:46.376Z,102360.16
2023-02-06T05:54:17.099Z,102345.25
2023-02-06T05:56:45.906Z,102360.03
2023-02-06T05:59:14.546Z,102359.38
2023-02-06T06:01:43.202Z,102364.25
2023-02-06T06:04:11.915Z,102365.91
2023-02-06T06:06:40.470Z,102360.78
2023-02-06T06:09:09.268Z,102370.25
2023-02-06T06:11:38.053Z,102357.13
2023-02-06T06:14:07.026Z,102364.88
2023-02-06T06:16:35.907Z,102357.03
2023-02-06T06:19:05.052Z,102347.22
2023-02-06T06:21:34.019Z,102354.13
2023-02-06T06:24:03.604Z,102351.50
2023-02-06T06:26:32.374Z,102355.00
2023-02-06T06:29:00.962Z,102364.44
2023-02-06T06:31:29.607Z,102364.38
2023-02-06T06:33:58.205Z,102358.13
2023-02-06T06:36:26.804Z,102363.28
2023-02-06T06:38:55.563Z,102368.50
2023-02-06T06:41:24.170Z,102380.75
2023-02-06T06:43:52.856Z,102373.78
2023-02-06T06:46:21.477Z,102372.81
2023-02-06T06:48:53.025Z,102376.25
2023-02-06T06:51:21.697Z,102384.88
2023-02-06T06:53:50.456Z,102386.53
2023-02-06T06:56:19.008Z,102391.78
2023-02-06T06:58:47.758Z,102387.34
2023-02-06T07:01:16.474Z,102381.13
2023-02-06T07:03:47.095Z,102389.00
2023-02-06T07:06:16.129Z,102391.53
2023-02-06T07:08:44.738Z,102392.63
2023-02-06T07:11:15.847Z,102396.13
2023-02-06T07:13:44.683Z,102397.75
2023-02-06T07:16:13.881Z,102387.84
2023-02-06T07:18:43.147Z,102391.97
2023-02-06T07:21:14.207Z,102402.38
2023-02-06T07:23:43.010Z,102395.41
2023-02-06T07:26:12.325Z,102389.25
2023-02-06T07:28:41.511Z,102388.28
2023-02-06T07:31:10.847Z,102381.13
2023-02-06T07:33:39.460Z,102380.13
2023-02-06T07:36:12.617Z,102370.53
2023-02-06T07:38:41.430Z,102374.56
2023-02-06T07:41:12.590Z,102373.50
2023-02-06T07:43:41.385Z,102369.00
2023-02-06T07:46:10.083Z,102369.72
2023-02-06T07:48:38.665Z,102363.50
2023-02-06T07:51:09.844Z,102366.13
2023-02-06T07:53:39.153Z,102362.47
2023-02-06T07:56:17.008Z,102358.94
2023-02-06T07:58:47.540Z,102359.19
2023-02-06T08:01:16.341Z,102351.47
2023-02-06T08:03:46.185Z,102347.94
2023-02-06T08:06:17.330Z,102352.22
2023-02-06T08:08:46.511Z,102359.19
2023-02-06T08:11:20.885Z,102347.53
2023-02-06T08:13:50.026Z,102348.34
2023-02-06T08:16:21.982Z,102355.16
2023-02-06T08:18:50.977Z,102361.13
2023-02-06T08:21:23.720Z,102359.47
2023-02-06T08:24:01.035Z,102358.44
2023-02-06T08:26:31.863Z,102361.91
2023-02-06T08:29:05.113Z,102353.84
2023-02-06T08:31:38.789Z,102355.41
2023-02-06T08:34:08.960Z,102348.25
2023-02-06T08:36:38.004Z,102353.38
2023-02-06T08:39:06.748Z,102348.94
2023-02-06T08:41:40.739Z,102350.63
2023-02-06T08:44:14.501Z,102341.91
2023-02-06T08:46:43.977Z,102342.56
2023-02-06T08:49:18.774Z,102343.25
2023-02-06T08:51:49.375Z,102341.25
2023-02-06T08:54:21.557Z,102357.78
2023-02-06T08:56:51.585Z,102352.34
2023-02-06T08:59:21.502Z,102349.78
2023-02-06T09:01:52.251Z,102358.34
2023-02-06T09:04:21.038Z,102351.03
2023-02-06T09:06:50.265Z,102339.63
2023-02-06T09:09:19.603Z,102349.06
2023-02-06T09:11:48.294Z,102344.34
2023-02-06T09:14:20.416Z,102334.59
2023-02-06T09:16:49.070Z,102341.75
2023-02-06T09:19:17.655Z,102333.88
2023-02-06T09:21:46.301Z,102344.88
2023-02-06T09:24:14.892Z,102340.31
2023-02-06T09:26:58.543Z,102341.88
2023-02-06T09:29:31.958Z,102341.63
2023-02-06T09:32:01.429Z,102337.09
2023-02-06T09:34:30.517Z,102338.84
2023-02-06T09:36:59.405Z,102348.44
2023-02-06T09:39:29.074Z,102339.28
2023-02-06T09:42:07.217Z,102336.41
2023-02-06T09:44:49.408Z,102336.13
2023-02-06T09:47:51.305Z,102330.59
2023-02-06T09:50:40.865Z,102316.44
2023-02-06T09:53:31.516Z,102335.28
2023-02-06T09:56:34.426Z,102344.09
2023-02-06T09:59:25.479Z,102341.41
2023-02-06T10:02:24.468Z,102334.44
2023-02-06T10:05:15.824Z,102351.94
2023-02-06T10:08:16.684Z,102348.16
2023-02-06T10:10:58.243Z,102345.91
2023-02-06T10:13:26.925Z,102326.53
2023-02-06T10:16:05.819Z,102333.94
2023-02-06T10:18:41.619Z,102333.66
2023-02-06T10:21:34.809Z,102344.38
2023-02-06T10:24:12.526Z,102342.13
2023-02-06T10:26:42.737Z,102333.38
2023-02-06T10:29:24.602Z,102328.25
2023-02-06T10:31:56.081Z,102330.22
2023-02-06T10:34:42.510Z,102324.97
2023-02-06T10:37:28.905Z,102322.47
2023-02-06T10:40:48.267Z,102312.25
2023-02-06T10:43:16.911Z,102318.97
2023-02-06T10:45:45.490Z,102318.53
2023-02-06T10:48:44.586Z,102311.94
2023-02-06T10:51:33.099Z,102324.16
2023-02-06T10:54:13.553Z,102315.06
2023-02-06T10:56:45.940Z,102316.91
2023-02-06T10:59:40.529Z,102328.19
2023-02-06T11:02:12.958Z,102320.88
2023-02-06T11:04:52.276Z,102319.25
2023-02-06T11:07:35.063Z,102314.84
2023-02-06T11:10:03.721Z,102317.34
2023-02-06T11:12:40.430Z,102311.31
2023-02-06T11:15:38.963Z,102303.06
2023-02-06T11:18:12.826Z,102303.72
2023-02-06T11:20:45.089Z,102293.97
2023-02-06T11:23:24.075Z,102297.28
2023-02-06T11:26:19.687Z,102290.34
2023-02-06T11:28:55.256Z,102284.03
2023-02-06T11:31:45.651Z,102285.22
2023-02-06T11:34:37.132Z,102284.22
2023-02-06T11:37:36.412Z,102292.13
2023-02-06T11:40:19.989Z,102288.09
2023-02-06T11:42:52.692Z,102290.03
2023-02-06T11:45:33.149Z,102278.69
2023-02-06T11:48:02.570Z,102276.44
2023-02-06T11:50:38.659Z,102280.97
2023-02-06T11:53:19.446Z,102285.94
2023-02-06T11:56:00.948Z,102274.00
2023-02-06T11:58:30.873Z,102271.59
2023-02-06T12:01:09.653Z,102278.03
2023-02-06T12:03:51.611Z,102280.81
2023-02-06T12:06:40.573Z,102273.56
2023-02-06T12:09:14.210Z,102279.19
2023-02-06T12:12:16.464Z,102281.81
2023-02-06T12:15:45.559Z,102273.69
2023-02-06T12:18:28.784Z,102291.19
2023-02-06T12:21:18.180Z,102285.56
2023-02-06T12:24:02.995Z,102297.66
2023-02-06T12:26:35.355Z,102297.47
2023-02-06T12:29:20.068Z,102297.38
2023-02-06T12:31:54.104Z,102294.53
2023-02-06T12:34:31.465Z,102282.41
2023-02-06T12:37:20.817Z,102301.56
2023-02-06T12:39:50.532Z,102296.53
2023-02-06T12:42:59.563Z,102288.78
2023-02-06T12:45:40.857Z,102290.63
2023-02-06T12:48:23.103Z,102294.31
2023-02-06T12:51:22.128Z,102285.47
2023-02-06T12:54:04.996Z,102278.34
2023-02-06T12:56:41.421Z,102290.72
2023-02-06T13:00:02.717Z,102282.03
2023-02-06T13:03:14.167Z,102299.28
2023-02-06T13:05:49.715Z,102297.31
2023-02-06T13:08:30.364Z,102292.88
2023-02-06T13:11:09.761Z,102290.00
2023-02-06T13:13:41.731Z,102280.97
2023-02-06T13:16:10.802Z,102281.16
2023-02-06T13:18:47.188Z,102280.25
2023-02-06T13:21:25.414Z,102288.00
2023-02-06T13:24:02.925Z,102291.41
2023-02-06T13:26:51.614Z,102305.41
2023-02-06T13:29:28.189Z,102305.81
2023-02-06T13:32:15.286Z,102306.53
2023-02-06T13:35:08.653Z,102302.19
2023-02-06T13:37:40.276Z,102297.75
2023-02-06T13:40:26.799Z,102299.34
2023-02-06T13:43:14.861Z,102300.84
2023-02-06T13:46:00.581Z,102307.16
2023-02-06T13:49:00.184Z,102301.56
2023-02-06T13:51:55.922Z,102318.09
2023-02-06T13:55:34.591Z,102311.34
2023-02-06T13:58:40.990Z,102307.16
2023-02-06T14:01:23.189Z,102313.19
2023-02-06T14:03:54.200Z,102316.22
2023-02-06T14:06:56.747Z,102321.47
2023-02-06T14:10:05.255Z,102327.44
2023-02-06T14:13:08.251Z,102337.91
2023-02-06T14:16:20.058Z,102326.84
2023-02-06T14:19:04.452Z,102339.13
2023-02-06T14:21:53.979Z,102345.84
2023-02-06T14:25:04.190Z,102346.31
2023-02-06T14:28:08.489Z,102349.78
2023-02-06T14:30:51.131Z,102352.81
2023-02-06T14:33:19.821Z,102345.63
2023-02-06T14:36:22.288Z,102353.84
2023-02-06T14:39:09.768Z,102348.72
2023-02-06T14:41:39.745Z,102346.69
2023-02-06T14:44:25.619Z,102349.63
2023-02-06T14:46:54.480Z,102348.25
2023-02-06T14:49:35.583Z,102352.78
2023-02-06T14:52:05.965Z,102368.56
2023-02-06T14:54:38.434Z,102361.31
2023-02-06T14:57:24.159Z,102366.00
2023-02-06T15:00:07.828Z,102362.31
2023-02-06T15:02:38.757Z,102369.31
2023-02-06T15:05:07.768Z,102377.50
2023-02-06T15:07:39.745Z,102382.00
2023-02-06T15:10:18.338Z,102374.09
2023-02-06T15:12:54.906Z,102375.78
2023-02-06T15:15:33.389Z,102382.88
2023-02-06T15:18:19.309Z,102394.72
2023-02-06T15:21:03.237Z,102406.66
2023-02-06T15:24:05.927Z,102410.97
2023-02-06T15:26:49.191Z,102413.72
2023-02-06T15:29:24.035Z,102413.44
2023-02-06T15:31:56.411Z,102419.88
2023-02-06T15:34:26.513Z,102426.09
2023-02-06T15:36:55.297Z,102422.34
2023-02-06T15:39:24.096Z,102442.44
2023-02-06T15:41:54.177Z,102441.72
2023-02-06T15:44:38.621Z,102439.47
2023-02-06T15:47:14.433Z,102450.63
2023-02-06T15:49:46.362Z,102439.47
2023-02-06T15:52:32.664Z,102445.09
2023-02-06T15:55:02.359Z,102452.09
2023-02-06T15:57:42.423Z,102450.31
2023-02-06T16:00:27.499Z,102444.22
2023-02-06T16:03:03.891Z,102450.53
2023-02-06T16:05:41.578Z,102445.31
2023-02-06T16:08:21.955Z,102451.25
2023-02-06T16:10:55.139Z,102454.69
2023-02-06T16:13:28.048Z,102466.72
2023-02-06T16:16:19.696Z,102479.91
2023-02-06T16:18:52.037Z,102481.78
2023-02-06T16:21:20.678Z,102486.53
2023-02-06T16:24:17.779Z,102478.56
2023-02-06T16:26:52.410Z,102499.28
2023-02-06T16:29:33.072Z,102501.03
2023-02-06T16:32:10.245Z,102503.69
2023-02-06T16:34:46.103Z,102496.59
2023-02-06T16:37:30.399Z,102497.28
2023-02-06T16:39:59.056Z,102506.13
2023-02-06T16:42:35.546Z,102510.53
2023-02-06T16:45:28.338Z,102513.13
2023-02-06T16:47:57.215Z,102520.78
2023-02-06T16:50:25.903Z,102525.44
2023-02-06T16:53:04.714Z,102530.53
2023-02-06T16:55:33.197Z,102526.28
2023-02-06T16:58:02.831Z,102525.78
2023-02-06T17:00:33.353Z,102530.75
2023-02-06T17:03:02.109Z,102525.84
2023-02-06T17:05:31.651Z,102519.78
2023-02-06T17:08:01.776Z,102535.81
2023-02-06T17:10:30.509Z,102532.78
2023-02-06T17:12:59.257Z,102527.81
2023-02-06T17:15:29.249Z,102533.94
2023-02-06T17:17:57.928Z,102527.75
2023-02-06T17:20:27.128Z,102529.72
2023-02-06T17:22:55.745Z,102539.31
2023-02-06T17:25:24.355Z,102539.47
2023-02-06T17:27:53.805Z,102539.94
2023-02-06T17:30:25.909Z,102538.88
2023-02-06T17:32:54.801Z,102549.47
2023-02-06T17:35:24.531Z,102545.25
2023-02-06T17:37:54.091Z,102541.53
2023-02-06T17:40:32.586Z,102557.19
2023-02-06T17:43:04.068Z,102554.97
2023-02-06T17:45:33.706Z,102549.38
2023-02-06T17:48:02.811Z,102559.13
2023-02-06T17:50:31.871Z,102561.94
2023-02-06T17:53:00.734Z,102565.56
2023-02-06T17:55:29.726Z,102564.75
2023-02-06T17:57:58.775Z,102566.84
2023-02-06T18:00:27.833Z,102571.44
2023-02-06T18:03:00.058Z,102594.56
2023-02-06T18:05:29.335Z,102578.19
2023-02-06T18:07:58.040Z,102582.00
2023-02-06T18:10:27.604Z,102574.91
2023-02-06T18:12:56.465Z,102574.13
2023-02-06T18:15:25.108Z,102563.56
2023-02-06T18:17:54.990Z,102578.63
2023-02-06T18:20:23.527Z,102582.13
2023-02-06T18:22:52.585Z,102571.06
2023-02-06T18:25:21.549Z,102580.00
2023-02-06T18:27:50.270Z,102579.19
2023-02-06T18:30:18.925Z,102587.31
2023-02-06T18:32:47.536Z,102581.47
2023-02-06T18:35:16.490Z,102573.72
2023-02-06T18:37:45.203Z,102577.44
2023-02-06T18:40:14.080Z,102572.88
2023-02-06T18:42:51.052Z,102564.06
2023-02-06T18:45:21.901Z,102570.19
2023-02-06T18:47:52.210Z,102577.97
2023-02-06T18:50:22.261Z,102580.72
2023-02-06T18:52:51.994Z,102561.47
2023-02-06T18:55:21.104Z,102576.50
2023-02-06T18:57:49.639Z,102574.66
2023-02-06T19:00:21.167Z,102580.88
2023-02-06T19:02:50.298Z,102584.81
2023-02-06T19:05:19.247Z,102590.84
2023-02-06T19:07:52.713Z,102583.25
2023-02-06T19:10:22.539Z,102583.16
2023-02-06T19:12:51.132Z,102583.94
2023-02-06T19:15:19.935Z,102584.81
2023-02-06T19:17:49.585Z,102588.41
2023-02-06T19:20:18.702Z,102589.28
2023-02-06T19:22:47.375Z,102588.69
2023-02-06T19:25:16.065Z,102586.22
2023-02-06T19:27:44.850Z,102588.69
2023-02-06T19:30:14.342Z,102573.09
2023-02-06T19:32:43.482Z,102581.81
2023-02-06T19:35:13.143Z,102585.19
2023-02-06T19:37:42.163Z,102591.47
2023-02-06T19:40:11.289Z,102588.69
2023-02-06T19:42:41.118Z,102584.41
2023-02-06T19:45:09.794Z,102579.53
2023-02-06T19:47:38.412Z,102573.53
2023-02-06T19:50:07.555Z,102585.81
2023-02-06T19:52:36.181Z,102601.34
2023-02-06T19:55:05.410Z,102602.53
2023-02-06T19:57:34.153Z,102604.19
2023-02-06T20:00:04.454Z,102604.38
2023-02-06T20:02:33.087Z,102611.25
2023-02-06T20:05:02.726Z,102598.09
2023-02-06T20:07:32.117Z,102604.31
2023-02-06T20:10:00.790Z,102606.84
2023-02-06T20:12:29.433Z,102620.13
2023-02-06T20:14:58.035Z,102632.41
2023-02-06T20:17:27.002Z,102627.13
2023-02-06T20:19:55.972Z,102633.22
2023-02-06T20:22:24.336Z,102647.94
2023-02-06T20:24:52.908Z,102634.88
2023-02-06T20:27:21.554Z,102632.09
2023-02-06T20:29:50.183Z,102629.38
2023-02-06T20:32:19.532Z,102636.53
2023-02-06T20:34:48.625Z,102644.31
2023-02-06T20:37:18.033Z,102654.69
2023-02-06T20:39:46.651Z,102657.38
2023-02-06T20:42:15.536Z,102665.19
2023-02-06T20:44:44.153Z,102669.72
2023-02-06T20:47:12.476Z,102665.47
2023-02-06T20:49:41.967Z,102659.34
2023-02-06T20:52:10.201Z,102663.69
2023-02-06T20:54:38.957Z,102656.81
2023-02-06T20:57:07.892Z,102661.88
2023-02-06T20:59:36.547Z,102675.66
2023-02-06T21:02:05.200Z,102674.09
2023-02-06T21:04:34.498Z,102673.13
2023-02-06T21:07:03.163Z,102671.41
2023-02-06T21:09:32.104Z,102663.53
2023-02-06T21:12:00.781Z,102662.50
2023-02-06T21:14:30.176Z,102666.00
2023-02-06T21:16:58.940Z,102660.69
2023-02-06T21:19:29.249Z,102659.03
2023-02-06T21:21:58.132Z,102662.53
2023-02-06T21:24:26.715Z,102656.50
2023-02-06T21:26:55.612Z,102665.28
2023-02-06T21:29:24.233Z,102675.81
2023-02-06T21:32:07.206Z,102671.63
2023-02-06T21:34:41.288Z,102661.00
2023-02-06T21:37:10.264Z,102663.72
2023-02-06T21:39:41.090Z,102665.22
2023-02-06T21:42:11.681Z,102670.88
2023-02-06T21:44:40.728Z,102658.03
2023-02-06T21:47:10.180Z,102664.22
2023-02-06T21:49:38.940Z,102653.91
2023-02-06T21:52:07.752Z,102655.56
2023-02-06T21:54:36.662Z,102648.69
2023-02-06T21:57:05.258Z,102658.56
2023-02-06T21:59:34.232Z,102658.63
2023-02-06T22:02:03.019Z,102672.59
2023-02-06T22:04:31.651Z,102677.88
2023-02-06T22:07:00.264Z,102689.16
2023-02-06T22:09:28.969Z,102688.25
2023-02-06T22:11:58.331Z,102690.78
2023-02-06T22:14:27.013Z,102692.41
2023-02-06T22:16:55.698Z,102703.00
2023-02-06T22:19:24.332Z,102724.84
2023-02-06T22:21:53.080Z,102705.91
2023-02-06T22:24:22.005Z,102685.88
2023-02-06T22:26:50.407Z,102681.66
2023-02-06T22:29:19.460Z,102679.84
2023-02-06T22:31:48.426Z,102676.44
2023-02-06T22:34:20.877Z,102687.91
2023-02-06T22:36:52.512Z,102691.31
2023-02-06T22:39:21.233Z,102695.66
2023-02-06T22:41:50.294Z,102693.00
2023-02-06T22:44:20.549Z,102711.28
2023-02-06T22:46:52.287Z,102715.72
2023-02-06T22:49:22.380Z,102720.84
2023-02-06T22:51:50.859Z,102720.84
2023-02-06T22:54:19.314Z,102713.00
2023-02-06T22:56:47.747Z,102716.41
2023-02-06T22:59:27.842Z,102728.31
2023-02-06T23:01:59.264Z,102739.44
2023-02-06T23:04:34.624Z,102740.22
2023-02-06T23:07:16.144Z,102745.28
2023-02-06T23:09:44.652Z,102743.53
2023-02-06T23:12:13.798Z,102736.66
2023-02-06T23:14:42.247Z,102736.75
2023-02-06T23:17:10.770Z,102733.25
2023-02-06T23:19:40.897Z,102734.03
2023-02-06T23:22:10.636Z,102736.59
2023-02-06T23:24:39.027Z,102727.06
2023-02-06T23:27:07.494Z,102735.13
2023-02-06T23:29:35.948Z,102737.03
2023-02-06T23:32:04.340Z,102735.56
2023-02-06T23:34:32.795Z,102738.13
2023-02-06T23:37:01.215Z,102728.38
2023-02-06T23:39:29.666Z,102727.28
2023-02-06T23:41:58.151Z,102725.41
2023-02-06T23:44:26.577Z,102719.41
2023-02-06T23:46:55.103Z,102723.03
2023-02-06T23:49:23.509Z,102721.41
2023-02-06T23:51:51.941Z,102713.00
2023-02-06T23:54:20.373Z,102714.91
2023-02-06T23:56:58.003Z,102718.44
2023-02-06T23:59:26.466Z,102718.53
